createdAt,value
2022-08-18T00:02:43.622Z,10.05
2022-08-18T00:05:47.576Z,13.02
2022-08-18T00:08:38.319Z,11.35
2022-08-18T00:11:25.118Z,9.45
2022-08-18T00:14:22.604Z,22.05
2022-08-18T00:17:09.048Z,10.82
2022-08-18T00:19:55.850Z,11.10
2022-08-18T00:22:42.119Z,12.65
2022-08-18T00:25:28.370Z,11.70
2022-08-18T00:28:14.818Z,13.57
2022-08-18T00:31:01.393Z,11.70
2022-08-18T00:33:47.347Z,10.82
2022-08-18T00:36:34.715Z,10.93
2022-08-18T00:39:20.725Z,11.07
2022-08-18T00:42:27.711Z,15.37
2022-08-18T00:45:23.119Z,13.35
2022-08-18T00:48:11.961Z,14.95
2022-08-18T00:51:02.210Z,11.80
2022-08-18T00:53:54.306Z,11.27
2022-08-18T00:56:50.283Z,12.13
2022-08-18T01:00:13.124Z,12.60
2022-08-18T01:03:03.595Z,10.98
2022-08-18T01:06:14.593Z,13.85
2022-08-18T01:09:01.785Z,11.90
2022-08-18T01:11:48.434Z,11.35
2022-08-18T01:14:34.766Z,9.60
2022-08-18T01:17:40.207Z,10.87
2022-08-18T01:21:13.907Z,10.60
2022-08-18T01:24:03.481Z,10.95
2022-08-18T01:26:50.121Z,11.48
2022-08-18T01:29:41.605Z,12.40
2022-08-18T01:32:29.350Z,12.48
2022-08-18T01:35:17.925Z,11.37
2022-08-18T01:38:03.940Z,9.68
2022-08-18T01:41:22.150Z,10.10
2022-08-18T01:43:59.123Z,9.98
2022-08-18T01:46:45.399Z,10.63
2022-08-18T01:49:31.634Z,9.45
2022-08-18T01:52:21.115Z,10.47
2022-08-18T01:55:10.586Z,9.20
2022-08-18T01:57:56.806Z,9.73
2022-08-18T02:00:42.885Z,9.15
2022-08-18T02:03:34.296Z,9.85
2022-08-18T02:06:32.281Z,9.30
2022-08-18T02:09:23.568Z,10.15
2022-08-18T02:12:11.398Z,8.95
2022-08-18T02:14:57.974Z,10.27
2022-08-18T02:17:46.095Z,9.05
2022-08-18T02:20:32.247Z,8.52
2022-08-18T02:23:18.526Z,9.52
2022-08-18T02:26:06.809Z,8.80
2022-08-18T02:28:52.797Z,13.25
2022-08-18T02:31:38.859Z,9.10
2022-08-18T02:34:25.588Z,8.97
2022-08-18T02:37:15.200Z,9.30
2022-08-18T02:40:02.228Z,8.98
2022-08-18T02:42:49.761Z,9.07
2022-08-18T02:45:37.877Z,8.43
2022-08-18T02:48:31.421Z,8.95
2022-08-18T02:51:18.230Z,8.20
2022-08-18T02:54:09.199Z,8.48
2022-08-18T02:56:57.143Z,9.68
2022-08-18T02:59:43.145Z,8.82
2022-08-18T03:02:33.710Z,8.40
2022-08-18T03:05:20.188Z,9.15
2022-08-18T03:08:06.311Z,7.75
2022-08-18T03:10:52.746Z,8.23
2022-08-18T03:13:39.187Z,8.93
2022-08-18T03:16:25.138Z,8.45
2022-08-18T03:19:11.038Z,7.87
2022-08-18T03:22:03.296Z,8.15
2022-08-18T03:24:49.635Z,9.10
2022-08-18T03:27:36.086Z,8.50
2022-08-18T03:30:23.637Z,9.00
2022-08-18T03:33:10.598Z,9.85
2022-08-18T03:35:56.636Z,9.23
2022-08-18T03:38:44.389Z,6.82
2022-08-18T03:41:59.171Z,8.20
2022-08-18T03:44:41.951Z,8.43
2022-08-18T03:47:28.155Z,7.90
2022-08-18T03:50:14.533Z,7.78
2022-08-18T03:53:00.481Z,9.32
2022-08-18T03:55:46.605Z,7.35
2022-08-18T03:58:33.071Z,7.45
2022-08-18T04:01:25.257Z,8.25
2022-08-18T04:04:17.384Z,8.50
2022-08-18T04:07:07.681Z,7.13
2022-08-18T04:09:53.877Z,9.35
2022-08-18T04:12:42.808Z,8.90
2022-08-18T04:15:29.141Z,8.90
2022-08-18T04:18:15.076Z,9.60
2022-08-18T04:21:09.347Z,7.90
2022-08-18T04:23:55.474Z,8.93
2022-08-18T04:26:46.725Z,9.73
2022-08-18T04:29:32.989Z,7.38
2022-08-18T04:32:19.585Z,7.45
2022-08-18T04:35:10.074Z,7.03
2022-08-18T04:38:00.026Z,8.18
2022-08-18T04:40:47.389Z,7.78
2022-08-18T04:43:34.314Z,7.25
2022-08-18T04:49:11.952Z,7.60
2022-08-18T04:52:36.775Z,9.15
2022-08-18T04:55:23.661Z,8.60
2022-08-18T04:58:09.543Z,8.30
2022-08-18T05:01:01.548Z,8.80
2022-08-18T05:03:52.343Z,10.15
2022-08-18T05:06:38.533Z,9.98
2022-08-18T05:09:24.818Z,10.43
2022-08-18T05:12:15.987Z,8.75
2022-08-18T05:15:02.335Z,8.48
2022-08-18T05:17:50.965Z,8.18
2022-08-18T05:20:41.376Z,9.63
2022-08-18T05:23:29.772Z,11.43
2022-08-18T05:26:17.972Z,8.93
2022-08-18T05:29:18.788Z,9.02
2022-08-18T05:32:07.853Z,9.00
2022-08-18T05:34:53.761Z,11.63
2022-08-18T05:37:52.156Z,8.48
2022-08-18T05:40:38.845Z,9.48
2022-08-18T05:43:24.945Z,9.10
2022-08-18T05:46:11.328Z,10.35
2022-08-18T05:48:57.502Z,9.90
2022-08-18T05:51:46.981Z,12.03
2022-08-18T05:55:01.560Z,13.50
2022-08-18T05:57:52.726Z,10.20
2022-08-18T06:00:40.416Z,8.70
2022-08-18T06:03:45.498Z,9.48
2022-08-18T06:06:34.443Z,10.15
2022-08-18T06:09:25.993Z,8.23
2022-08-18T06:12:41.187Z,9.35
2022-08-18T06:15:46.861Z,11.27
2022-08-18T06:18:38.509Z,9.65
2022-08-18T06:21:50.268Z,9.25
2022-08-18T06:24:46.811Z,7.90
2022-08-18T06:27:51.608Z,12.48
2022-08-18T06:30:59.755Z,9.45
2022-08-18T06:34:12.376Z,8.15
2022-08-18T06:37:10.933Z,7.60
2022-08-18T06:39:57.312Z,8.77
2022-08-18T06:42:44.023Z,8.65
2022-08-18T06:45:39.690Z,8.27
2022-08-18T06:48:43.935Z,9.35
2022-08-18T06:51:30.269Z,13.68
2022-08-18T06:54:22.244Z,9.25
2022-08-18T06:57:24.478Z,8.75
2022-08-18T07:00:16.878Z,9.85
2022-08-18T07:03:39.938Z,9.00
2022-08-18T07:06:31.300Z,8.90
2022-08-18T07:09:21.395Z,8.98
2022-08-18T07:12:10.149Z,9.38
2022-08-18T07:15:00.018Z,9.00
2022-08-18T07:17:49.566Z,10.18
2022-08-18T07:20:53.936Z,11.07
2022-08-18T07:23:40.775Z,10.52
2022-08-18T07:26:26.983Z,13.52
2022-08-18T07:29:15.492Z,16.87
2022-08-18T07:32:20.822Z,12.60
2022-08-18T07:35:09.616Z,11.10
2022-08-18T07:38:18.618Z,11.10
2022-08-18T07:41:14.281Z,11.32
2022-08-18T07:44:18.483Z,14.88
2022-08-18T07:47:20.481Z,11.48
2022-08-18T07:50:27.113Z,11.82
2022-08-18T07:53:25.789Z,16.70
2022-08-18T07:56:47.835Z,11.85
2022-08-18T07:59:54.529Z,11.25
2022-08-18T08:03:23.420Z,12.07
2022-08-18T08:06:16.461Z,13.00
2022-08-18T08:09:02.346Z,12.38
2022-08-18T08:11:57.297Z,11.87
2022-08-18T08:14:49.817Z,13.95
2022-08-18T08:17:54.711Z,12.85
2022-08-18T08:20:58.881Z,13.43
2022-08-18T08:24:06.390Z,10.70
2022-08-18T08:27:01.630Z,11.43
2022-08-18T08:30:19.173Z,11.57
2022-08-18T08:33:33.503Z,12.10
2022-08-18T08:36:27.662Z,12.52
2022-08-18T08:39:16.314Z,9.80
2022-08-18T08:42:31.629Z,8.90
2022-08-18T08:45:27.454Z,8.80
2022-08-18T08:48:20.556Z,10.30
2022-08-18T08:51:30.234Z,8.98
2022-08-18T08:54:49.605Z,8.45
2022-08-18T08:57:49.939Z,10.82
2022-08-18T09:00:38.975Z,10.23
2022-08-18T09:03:46.224Z,10.75
2022-08-18T09:06:41.587Z,8.40
2022-08-18T09:09:49.220Z,9.35
2022-08-18T09:12:53.748Z,10.35
2022-08-18T09:16:12.368Z,10.55
2022-08-18T09:19:19.542Z,8.70
2022-08-18T09:22:17.453Z,12.18
2022-08-18T09:25:29.263Z,12.23
2022-08-18T09:28:23.495Z,9.90
2022-08-18T09:31:09.371Z,10.75
2022-08-18T09:34:17.902Z,10.10
2022-08-18T09:37:16.346Z,10.10
2022-08-18T09:44:17.877Z,9.38
2022-08-18T09:47:08.674Z,10.55
2022-08-18T09:49:56.639Z,10.70
2022-08-18T09:52:42.805Z,11.18
2022-08-18T09:55:30.602Z,9.63
2022-08-18T09:58:26.251Z,9.20
2022-08-18T10:01:30.346Z,11.13
2022-08-18T10:04:21.927Z,8.88
2022-08-18T10:07:20.545Z,11.73
2022-08-18T10:11:02.875Z,10.18
2022-08-18T10:13:54.942Z,9.38
2022-08-18T10:17:21.328Z,9.48
2022-08-18T10:20:39.159Z,13.00
2022-08-18T10:23:58.435Z,9.27
2022-08-18T10:26:55.383Z,8.60
2022-08-18T10:29:41.730Z,10.57
2022-08-18T10:32:44.364Z,9.13
2022-08-18T10:35:38.410Z,7.20
2022-08-18T10:38:57.086Z,8.63
2022-08-18T10:42:20.729Z,10.77
2022-08-18T10:45:13.716Z,8.00
2022-08-18T10:48:19.622Z,8.60
2022-08-18T10:51:27.441Z,9.15
2022-08-18T10:54:50.737Z,7.90
2022-08-18T10:57:46.672Z,8.90
2022-08-18T11:01:04.925Z,14.48
2022-08-18T11:04:08.827Z,8.10
2022-08-18T11:07:07.858Z,9.15
2022-08-18T11:13:31.394Z,7.80
2022-08-18T11:16:17.447Z,6.72
2022-08-18T11:19:10.918Z,7.15
2022-08-18T11:21:57.471Z,8.20
2022-08-18T11:24:46.816Z,7.25
2022-08-18T11:27:44.917Z,8.93
2022-08-18T11:30:37.452Z,7.43
2022-08-18T11:33:26.202Z,10.45
2022-08-18T11:36:16.265Z,6.47
2022-08-18T11:39:03.439Z,7.97
2022-08-18T11:41:51.677Z,10.60
2022-08-18T11:44:39.592Z,6.40
2022-08-18T11:50:33.199Z,6.22
2022-08-18T11:53:39.875Z,8.98
2022-08-18T11:56:38.458Z,7.72
2022-08-18T11:59:52.946Z,6.18
2022-08-18T12:02:38.929Z,8.25
2022-08-18T12:05:25.402Z,8.35
2022-08-18T12:12:06.802Z,6.38
2022-08-18T12:15:10.398Z,7.70
2022-08-18T12:18:00.021Z,7.68
2022-08-18T12:20:48.883Z,6.97
2022-08-18T12:23:49.489Z,6.60
2022-08-18T12:26:47.302Z,8.18
2022-08-18T12:29:43.301Z,8.05
2022-08-18T12:32:46.488Z,6.78
2022-08-18T12:35:36.490Z,7.50
2022-08-18T12:38:23.529Z,6.25
2022-08-18T12:41:12.105Z,7.85
2022-08-18T12:43:58.475Z,9.25
2022-08-18T12:46:45.589Z,9.25
2022-08-18T12:49:34.715Z,6.93
2022-08-18T12:52:21.866Z,6.93
2022-08-18T12:55:21.375Z,9.57
2022-08-18T12:58:09.006Z,7.07
2022-08-18T13:00:57.045Z,8.93
2022-08-18T13:03:45.357Z,9.20
2022-08-18T13:06:54.196Z,6.97
2022-08-18T13:09:53.667Z,9.40
2022-08-18T13:12:40.526Z,9.38
2022-08-18T13:15:28.368Z,9.45
2022-08-18T13:18:14.608Z,9.27
2022-08-18T13:21:01.913Z,8.65
2022-08-18T13:23:47.975Z,6.95
2022-08-18T13:26:39.617Z,7.07
2022-08-18T13:29:27.892Z,6.70
2022-08-18T13:32:16.066Z,6.70
2022-08-18T13:35:09.028Z,6.65
2022-08-18T13:37:59.551Z,9.85
2022-08-18T13:40:48.719Z,7.68
2022-08-18T13:43:39.711Z,7.97
2022-08-18T13:46:30.908Z,9.13
2022-08-18T13:49:24.010Z,11.30
2022-08-18T13:52:33.169Z,8.18
2022-08-18T13:55:21.295Z,8.48
2022-08-18T13:58:17.666Z,9.07
2022-08-18T14:01:42.446Z,10.60
2022-08-18T14:04:19.958Z,9.07
2022-08-18T14:07:10.967Z,8.15
2022-08-18T14:09:58.891Z,8.95
2022-08-18T14:12:54.273Z,9.88
2022-08-18T14:15:47.200Z,9.75
2022-08-18T14:18:39.063Z,9.00
2022-08-18T14:21:44.009Z,10.68
2022-08-18T14:24:49.846Z,8.80
2022-08-18T14:27:38.240Z,8.82
2022-08-18T14:30:25.126Z,7.43
2022-08-18T14:33:14.972Z,8.18
2022-08-18T14:36:06.159Z,7.72
2022-08-18T14:38:57.269Z,8.18
2022-08-18T14:41:49.578Z,7.80
2022-08-18T14:44:42.157Z,9.13
2022-08-18T14:47:32.977Z,7.72
2022-08-18T14:50:25.648Z,8.05
2022-08-18T14:53:14.343Z,8.98
2022-08-18T14:56:02.365Z,8.75
2022-08-18T14:58:48.939Z,7.43
2022-08-18T15:01:42.588Z,15.00
2022-08-18T15:04:28.900Z,7.28
2022-08-18T15:07:18.221Z,10.60
2022-08-18T15:10:15.637Z,7.55
2022-08-18T15:13:03.681Z,7.18
2022-08-18T15:15:51.738Z,7.53
2022-08-18T15:18:38.310Z,7.05
2022-08-18T15:21:42.604Z,10.88
2022-08-18T15:24:48.043Z,6.78
2022-08-18T15:27:42.376Z,7.13
2022-08-18T15:30:29.712Z,6.75
2022-08-18T15:33:17.582Z,8.35
2022-08-18T15:36:09.958Z,7.93
2022-08-18T15:38:56.869Z,8.63
2022-08-18T15:44:36.045Z,7.07
2022-08-18T15:47:26.773Z,7.32
2022-08-18T15:50:21.840Z,7.15
2022-08-18T15:53:12.935Z,8.15
2022-08-18T15:56:04.419Z,7.47
2022-08-18T15:58:51.951Z,6.80
2022-08-18T16:01:42.279Z,6.75
2022-08-18T16:04:29.056Z,7.43
2022-08-18T16:07:17.881Z,7.10
2022-08-18T16:10:11.500Z,9.70
2022-08-18T16:12:58.269Z,7.70
2022-08-18T16:15:46.916Z,11.50
2022-08-18T16:18:32.854Z,9.10
2022-08-18T16:21:21.412Z,6.78
2022-08-18T16:24:09.288Z,7.82
2022-08-18T16:26:55.998Z,7.28
2022-08-18T16:29:42.069Z,8.65
2022-08-18T16:32:29.718Z,7.45
2022-08-18T16:35:16.046Z,7.20
2022-08-18T16:40:53.389Z,11.38
2022-08-18T16:43:39.989Z,9.27
2022-08-18T16:46:27.981Z,11.32
2022-08-18T16:49:14.841Z,9.48
2022-08-18T16:52:02.079Z,8.43
2022-08-18T16:54:48.455Z,8.32
2022-08-18T16:58:02.929Z,7.95
2022-08-18T17:01:07.364Z,8.70
2022-08-18T17:04:13.402Z,8.23
2022-08-18T17:07:01.425Z,13.43
2022-08-18T17:09:47.669Z,8.93
2022-08-18T17:12:34.124Z,8.40
2022-08-18T17:15:20.861Z,7.75
2022-08-18T17:18:07.973Z,9.25
2022-08-18T17:20:55.392Z,7.90
2022-08-18T17:23:42.153Z,16.42
2022-08-18T17:27:02.261Z,10.30
2022-08-18T17:30:18.685Z,11.68
2022-08-18T17:33:15.911Z,12.02
2022-08-18T17:36:06.904Z,16.05
2022-08-18T17:38:59.978Z,14.07
2022-08-18T17:42:04.619Z,11.82
2022-08-18T17:44:52.690Z,9.52
2022-08-18T17:47:46.614Z,9.45
2022-08-18T17:51:03.863Z,11.50
2022-08-18T17:53:49.712Z,11.10
2022-08-18T17:56:45.954Z,10.55
2022-08-18T17:59:45.997Z,11.02
2022-08-18T18:02:38.930Z,7.80
2022-08-18T18:05:35.385Z,7.88
2022-08-18T18:08:21.405Z,5.78
2022-08-18T18:11:11.537Z,2.78
2022-08-18T18:14:18.978Z,2.22
2022-08-18T18:17:24.938Z,2.38
2022-08-18T18:20:29.190Z,4.43
2022-08-18T18:23:21.373Z,2.95
2022-08-18T18:26:26.194Z,3.60
2022-08-18T18:29:19.125Z,3.72
2022-08-18T18:32:38.481Z,3.00
2022-08-18T18:35:28.076Z,3.63
2022-08-18T18:38:35.032Z,6.78
2022-08-18T18:41:26.572Z,5.20
2022-08-18T18:44:14.926Z,2.80
2022-08-18T18:47:01.682Z,3.67
2022-08-18T18:52:53.601Z,4.68
2022-08-18T18:56:05.217Z,4.40
2022-08-18T18:59:28.888Z,5.85
2022-08-18T19:02:37.941Z,8.25
2022-08-18T19:05:44.728Z,9.05
2022-08-18T19:09:08.514Z,13.00
2022-08-18T19:12:10.844Z,14.15
2022-08-18T19:15:06.506Z,13.90
2022-08-18T19:17:58.573Z,14.73
2022-08-18T19:22:01.949Z,15.57
2022-08-18T19:24:14.992Z,15.15
2022-08-18T19:27:04.094Z,16.13
2022-08-18T19:29:54.046Z,12.60
2022-08-18T19:33:01.702Z,12.05
2022-08-18T19:35:58.732Z,10.90
2022-08-18T19:38:50.015Z,11.73
2022-08-18T19:41:59.428Z,8.82
2022-08-18T19:45:26.703Z,9.82
2022-08-18T19:48:42.645Z,8.02
2022-08-18T19:51:32.974Z,10.23
2022-08-18T19:54:27.878Z,15.52
2022-08-18T19:57:43.296Z,10.65
2022-08-18T20:00:51.924Z,8.13
2022-08-18T20:04:08.825Z,8.88
2022-08-18T20:07:14.588Z,6.63
2022-08-18T20:10:19.142Z,7.05
2022-08-18T20:13:23.638Z,5.72
2022-08-18T20:16:43.383Z,6.28
2022-08-18T20:19:39.245Z,6.40
2022-08-18T20:22:31.037Z,7.55
2022-08-18T20:25:17.617Z,7.90
2022-08-18T20:28:06.345Z,7.15
2022-08-18T20:31:06.868Z,9.60
2022-08-18T20:34:14.324Z,10.00
2022-08-18T20:39:55.404Z,11.82
2022-08-18T20:42:45.337Z,9.40
2022-08-18T20:45:45.927Z,11.05
2022-08-18T20:49:07.663Z,12.02
2022-08-18T20:52:14.064Z,12.50
2022-08-18T20:55:11.399Z,14.02
2022-08-18T20:58:05.356Z,15.52
2022-08-18T21:01:01.576Z,17.25
2022-08-18T21:03:48.015Z,16.05
2022-08-18T21:06:41.959Z,17.95
2022-08-18T21:09:27.797Z,20.00
2022-08-18T21:12:24.798Z,21.57
2022-08-18T21:15:11.326Z,21.25
2022-08-18T21:18:06.829Z,21.95
2022-08-18T21:20:57.011Z,23.15
2022-08-18T21:23:44.452Z,24.50
2022-08-18T21:26:33.001Z,24.73
2022-08-18T21:29:19.762Z,28.70
2022-08-18T21:32:21.845Z,27.40
2022-08-18T21:35:38.089Z,31.73
2022-08-18T21:38:26.946Z,30.27
2022-08-18T21:41:13.770Z,26.13
2022-08-18T21:44:06.561Z,29.38
2022-08-18T21:47:05.641Z,27.15
2022-08-18T21:50:02.381Z,26.42
2022-08-18T21:52:58.604Z,23.10
2022-08-18T21:55:51.402Z,23.15
2022-08-18T21:58:42.465Z,23.13
2022-08-18T22:01:29.500Z,19.70
2022-08-18T22:04:30.010Z,21.80
2022-08-18T22:07:22.214Z,20.00
2022-08-18T22:10:49.109Z,22.10
2022-08-18T22:14:01.968Z,16.48
2022-08-18T22:16:49.470Z,15.52
2022-08-18T22:19:35.783Z,14.18
2022-08-18T22:22:41.217Z,13.20
2022-08-18T22:25:27.186Z,14.70
2022-08-18T22:28:13.214Z,10.47
2022-08-18T22:30:59.434Z,9.30
2022-08-18T22:33:46.375Z,9.55
2022-08-18T22:36:38.171Z,8.40
2022-08-18T22:39:54.881Z,9.45
2022-08-18T22:42:40.922Z,7.68
2022-08-18T22:45:28.129Z,7.57
2022-08-18T22:48:16.181Z,7.22
2022-08-18T22:51:02.183Z,7.05
2022-08-18T22:53:48.147Z,8.53
2022-08-18T22:56:35.433Z,7.07
2022-08-18T22:59:25.446Z,7.22
2022-08-18T23:02:15.038Z,6.82
2022-08-18T23:05:09.257Z,6.68
2022-08-18T23:10:41.490Z,5.93
2022-08-18T23:13:27.762Z,6.85
2022-08-18T23:16:31.589Z,5.97
2022-08-18T23:19:20.620Z,6.70
2022-08-18T23:22:08.945Z,8.65
2022-08-18T23:24:55.276Z,6.10
2022-08-18T23:27:42.478Z,6.80
2022-08-18T23:30:30.480Z,6.78
2022-08-18T23:33:19.396Z,7.85
2022-08-18T23:36:05.973Z,8.95
2022-08-18T23:38:53.920Z,11.45
2022-08-18T23:41:40.080Z,8.73
2022-08-18T23:44:27.179Z,7.80
2022-08-18T23:47:14.174Z,8.55
2022-08-18T23:50:00.092Z,8.70
2022-08-18T23:52:50.489Z,11.73
2022-08-18T23:55:37.894Z,8.32
2022-08-18T23:58:24.344Z,8.63
